Terminal Aerodrome Forecast
Issued by NWS Atlanta, GA

Current Version | Previous Version | Text Only | Print | Product List | Glossary On
Versions: 1 2 3 4 5 6 7 8 9 10 11 12 13 14 15 16 17 18 19 20 21 22 23 24 25 26 27 28 29 30 31
000
FTAK31 PAJN 292200 AAC
TAFAHN
TAF AMD
PAHN 292205Z 2922/3018 14007KT P6SM OVC070
     FM300300 10006KT P6SM VCSH SCT025 BKN050
     FM301400 VRB03KT P6SM -SHRA SCT005 BKN015 OVC030
      AMD LTD TO CLD VIS AND WIND=

USA.gov is the U.S. government's official web portal to all federal, state and local government web resources and services.